sensor_id;sensor_type;location;lat;lon;timestamp;pressure;altitude;pressure_sealevel;temperature;humidity
21520;BME280;10921;53.614;9.882;2023-12-29T00:01:22;100109.00;;;12.20;80.88
21520;BME280;10921;53.614;9.882;2023-12-29T00:03:49;100117.03;;;11.96;83.19
21520;BME280;10921;53.614;9.882;2023-12-29T00:06:15;100133.56;;;12.00;84.41
21520;BME280;10921;53.614;9.882;2023-12-29T00:08:42;100101.16;;;11.78;85.65
21520;BME280;10921;53.614;9.882;2023-12-29T00:11:19;100115.34;;;11.79;86.72
21520;BME280;10921;53.614;9.882;2023-12-29T00:13:46;100114.47;;;11.62;87.75
21520;BME280;10921;53.614;9.882;2023-12-29T00:16:14;100106.44;;;11.46;89.32
21520;BME280;10921;53.614;9.882;2023-12-29T00:18:41;100102.59;;;11.40;89.94
21520;BME280;10921;53.614;9.882;2023-12-29T00:21:07;100082.72;;;11.26;90.70
21520;BME280;10921;53.614;9.882;2023-12-29T00:23:34;100082.56;;;11.28;91.72
21520;BME280;10921;53.614;9.882;2023-12-29T00:26:00;100080.22;;;11.25;92.14
21520;BME280;10921;53.614;9.882;2023-12-29T00:28:27;100073.00;;;11.17;93.38
21520;BME280;10921;53.614;9.882;2023-12-29T00:30:54;100065.16;;;11.08;94.08
21520;BME280;10921;53.614;9.882;2023-12-29T00:33:28;100065.50;;;11.13;94.02
21520;BME280;10921;53.614;9.882;2023-12-29T00:35:55;100072.50;;;11.06;95.43
21520;BME280;10921;53.614;9.882;2023-12-29T00:38:22;100079.66;;;10.97;96.20
21520;BME280;10921;53.614;9.882;2023-12-29T00:40:49;100066.94;;;10.91;96.71
21520;BME280;10921;53.614;9.882;2023-12-29T00:43:15;100053.59;;;10.91;96.65
21520;BME280;10921;53.614;9.882;2023-12-29T00:45:44;100052.06;;;10.80;96.94
21520;BME280;10921;53.614;9.882;2023-12-29T00:48:11;100053.44;;;10.92;97.31
21520;BME280;10921;53.614;9.882;2023-12-29T00:50:38;100058.78;;;10.92;97.82
21520;BME280;10921;53.614;9.882;2023-12-29T00:53:04;100054.94;;;10.95;97.66
21520;BME280;10921;53.614;9.882;2023-12-29T00:55:30;100056.28;;;10.91;98.18
21520;BME280;10921;53.614;9.882;2023-12-29T00:57:59;100055.63;;;10.97;98.17
21520;BME280;10921;53.614;9.882;2023-12-29T01:00:26;100049.63;;;11.03;97.34
21520;BME280;10921;53.614;9.882;2023-12-29T01:02:53;100041.28;;;10.98;97.75
21520;BME280;10921;53.614;9.882;2023-12-29T01:05:20;100037.09;;;10.96;97.68
21520;BME280;10921;53.614;9.882;2023-12-29T01:07:47;100049.47;;;11.05;97.56
21520;BME280;10921;53.614;9.882;2023-12-29T01:10:14;100049.47;;;10.97;97.46
21520;BME280;10921;53.614;9.882;2023-12-29T01:12:41;100052.28;;;11.03;96.99
21520;BME280;10921;53.614;9.882;2023-12-29T01:15:08;100048.28;;;10.99;97.29
21520;BME280;10921;53.614;9.882;2023-12-29T01:17:34;100056.94;;;11.01;97.11
21520;BME280;10921;53.614;9.882;2023-12-29T01:20:01;100044.78;;;10.99;97.44
21520;BME280;10921;53.614;9.882;2023-12-29T01:22:30;100040.78;;;11.03;97.46
21520;BME280;10921;53.614;9.882;2023-12-29T01:24:59;100041.78;;;11.02;98.35
21520;BME280;10921;53.614;9.882;2023-12-29T01:27:26;100048.78;;;11.03;98.99
21520;BME280;10921;53.614;9.882;2023-12-29T01:29:53;100057.16;;;11.00;99.32
21520;BME280;10921;53.614;9.882;2023-12-29T01:32:23;100038.25;;;10.93;99.95
21520;BME280;10921;53.614;9.882;2023-12-29T01:34:49;100045.13;;;10.96;99.84
21520;BME280;10921;53.614;9.882;2023-12-29T01:37:16;100032.25;;;10.91;99.87
21520;BME280;10921;53.614;9.882;2023-12-29T01:39:43;100027.59;;;10.93;99.66
21520;BME280;10921;53.614;9.882;2023-12-29T01:42:09;100029.25;;;10.94;99.54
21520;BME280;10921;53.614;9.882;2023-12-29T01:44:37;100036.78;;;10.99;99.49
21520;BME280;10921;53.614;9.882;2023-12-29T01:47:11;100013.59;;;10.99;99.34
21520;BME280;10921;53.614;9.882;2023-12-29T01:49:40;100012.75;;;10.99;98.78
21520;BME280;10921;53.614;9.882;2023-12-29T01:52:07;100011.25;;;10.96;99.18
21520;BME280;10921;53.614;9.882;2023-12-29T01:54:35;100009.56;;;10.95;98.79
21520;BME280;10921;53.614;9.882;2023-12-29T01:57:04;100003.25;;;11.04;98.80
21520;BME280;10921;53.614;9.882;2023-12-29T01:59:31;100008.59;;;10.96;98.76
21520;BME280;10921;53.614;9.882;2023-12-29T02:01:58;100002.91;;;10.99;98.62
21520;BME280;10921;53.614;9.882;2023-12-29T02:04:27;100001.72;;;11.02;97.78
21520;BME280;10921;53.614;9.882;2023-12-29T02:06:54;99997.06;;;11.04;97.57
21520;BME280;10921;53.614;9.882;2023-12-29T02:09:22;100003.75;;;11.08;97.38
21520;BME280;10921;53.614;9.882;2023-12-29T02:11:48;99985.75;;;11.10;96.88
21520;BME280;10921;53.614;9.882;2023-12-29T02:14:15;99976.06;;;11.09;96.43
21520;BME280;10921;53.614;9.882;2023-12-29T02:19:43;99990.59;;;11.22;95.30
21520;BME280;10921;53.614;9.882;2023-12-29T02:22:12;99980.56;;;11.24;95.03
21520;BME280;10921;53.614;9.882;2023-12-29T02:24:39;99973.41;;;11.25;94.82
21520;BME280;10921;53.614;9.882;2023-12-29T02:32:46;99967.38;;;11.39;93.80
21520;BME280;10921;53.614;9.882;2023-12-29T02:35:20;99963.88;;;11.39;93.39
21520;BME280;10921;53.614;9.882;2023-12-29T02:37:48;99963.53;;;11.42;92.96
21520;BME280;10921;53.614;9.882;2023-12-29T02:40:16;99949.00;;;11.36;93.29
21520;BME280;10921;53.614;9.882;2023-12-29T02:42:47;99960.19;;;11.48;93.54
21520;BME280;10921;53.614;9.882;2023-12-29T02:45:17;99952.19;;;11.40;93.21
21520;BME280;10921;53.614;9.882;2023-12-29T02:47:44;99942.50;;;11.55;92.94
21520;BME280;10921;53.614;9.882;2023-12-29T02:50:11;99929.13;;;11.47;92.39
21520;BME280;10921;53.614;9.882;2023-12-29T02:52:38;99926.47;;;11.39;92.06
21520;BME280;10921;53.614;9.882;2023-12-29T02:55:05;99931.50;;;11.42;92.13
21520;BME280;10921;53.614;9.882;2023-12-29T02:57:32;99944.31;;;11.46;91.77
21520;BME280;10921;53.614;9.882;2023-12-29T02:59:59;99939.19;;;11.45;91.40
21520;BME280;10921;53.614;9.882;2023-12-29T03:02:25;99912.13;;;11.40;91.36
21520;BME280;10921;53.614;9.882;2023-12-29T03:04:52;99912.94;;;11.48;91.01
21520;BME280;10921;53.614;9.882;2023-12-29T03:07:18;99909.78;;;11.45;90.18
21520;BME280;10921;53.614;9.882;2023-12-29T03:09:45;99917.94;;;11.51;89.98
21520;BME280;10921;53.614;9.882;2023-12-29T03:12:11;99912.25;;;11.54;89.21
21520;BME280;10921;53.614;9.882;2023-12-29T03:14:38;99916.09;;;11.60;89.25
21520;BME280;10921;53.614;9.882;2023-12-29T03:17:05;99896.03;;;11.64;88.50
21520;BME280;10921;53.614;9.882;2023-12-29T03:19:34;99912.44;;;11.53;87.65
21520;BME280;10921;53.614;9.882;2023-12-29T03:22:02;99905.59;;;11.58;87.71
21520;BME280;10921;53.614;9.882;2023-12-29T03:24:29;99915.91;;;11.61;87.51
21520;BME280;10921;53.614;9.882;2023-12-29T03:26:56;99920.94;;;11.56;87.59
21520;BME280;10921;53.614;9.882;2023-12-29T03:29:23;99910.09;;;11.50;87.65
21520;BME280;10921;53.614;9.882;2023-12-29T03:31:50;99920.25;;;11.62;87.94
21520;BME280;10921;53.614;9.882;2023-12-29T03:34:17;99911.59;;;11.60;87.89
21520;BME280;10921;53.614;9.882;2023-12-29T03:36:44;99915.91;;;11.61;87.81
21520;BME280;10921;53.614;9.882;2023-12-29T03:39:10;99912.22;;;11.62;87.99
21520;BME280;10921;53.614;9.882;2023-12-29T03:41:37;99898.91;;;11.54;87.83
21520;BME280;10921;53.614;9.882;2023-12-29T03:44:04;99901.91;;;11.59;87.78
21520;BME280;10921;53.614;9.882;2023-12-29T03:46:33;99904.06;;;11.64;87.37
21520;BME280;10921;53.614;9.882;2023-12-29T03:49:00;99895.56;;;11.60;87.36
21520;BME280;10921;53.614;9.882;2023-12-29T03:51:27;99896.19;;;11.62;87.17
21520;BME280;10921;53.614;9.882;2023-12-29T03:53:53;99906.38;;;11.67;87.33
21520;BME280;10921;53.614;9.882;2023-12-29T03:56:20;99909.72;;;11.61;87.61
21520;BME280;10921;53.614;9.882;2023-12-29T03:58:47;99910.56;;;11.61;88.13
21520;BME280;10921;53.614;9.882;2023-12-29T04:01:15;99909.44;;;11.56;88.98
21520;BME280;10921;53.614;9.882;2023-12-29T04:03:43;99909.75;;;11.53;89.33
21520;BME280;10921;53.614;9.882;2023-12-29T04:06:10;99939.16;;;11.53;90.02
21520;BME280;10921;53.614;9.882;2023-12-29T04:08:37;99926.28;;;11.48;88.91
21520;BME280;10921;53.614;9.882;2023-12-29T04:11:05;99947.19;;;11.45;90.13
21520;BME280;10921;53.614;9.882;2023-12-29T04:13:32;99957.19;;;11.43;90.01
21520;BME280;10921;53.614;9.882;2023-12-29T04:15:59;99962.84;;;11.32;86.07
21520;BME280;10921;53.614;9.882;2023-12-29T04:18:26;100007.44;;;11.23;83.37
21520;BME280;10921;53.614;9.882;2023-12-29T04:20:52;100050.28;;;11.05;81.81
21520;BME280;10921;53.614;9.882;2023-12-29T04:23:19;100015.25;;;10.92;81.78
21520;BME280;10921;53.614;9.882;2023-12-29T04:25:46;99986.69;;;10.68;82.28
21520;BME280;10921;53.614;9.882;2023-12-29T04:28:12;99970.94;;;10.49;82.68
21520;BME280;10921;53.614;9.882;2023-12-29T04:30:39;99957.22;;;10.36;83.22
21520;BME280;10921;53.614;9.882;2023-12-29T04:33:06;99903.47;;;10.14;83.85
21520;BME280;10921;53.614;9.882;2023-12-29T04:35:32;99894.94;;;10.03;84.48
21520;BME280;10921;53.614;9.882;2023-12-29T04:37:59;99885.00;;;9.79;85.53
21520;BME280;10921;53.614;9.882;2023-12-29T04:40:26;99910.91;;;9.69;85.92
21520;BME280;10921;53.614;9.882;2023-12-29T04:42:52;99899.66;;;9.49;86.48
21520;BME280;10921;53.614;9.882;2023-12-29T04:45:19;99920.44;;;9.45;87.16
21520;BME280;10921;53.614;9.882;2023-12-29T04:47:45;99937.03;;;9.39;87.31
21520;BME280;10921;53.614;9.882;2023-12-29T04:50:12;99941.63;;;9.29;87.77
21520;BME280;10921;53.614;9.882;2023-12-29T04:52:39;99946.88;;;9.21;88.66
21520;BME280;10921;53.614;9.882;2023-12-29T04:55:06;99929.88;;;9.14;88.96
21520;BME280;10921;53.614;9.882;2023-12-29T04:57:32;99919.84;;;9.08;89.22
21520;BME280;10921;53.614;9.882;2023-12-29T04:59:59;99941.13;;;9.08;89.58
21520;BME280;10921;53.614;9.882;2023-12-29T05:02:26;99935.41;;;9.03;90.28
21520;BME280;10921;53.614;9.882;2023-12-29T05:04:52;99930.72;;;8.97;91.23
21520;BME280;10921;53.614;9.882;2023-12-29T05:07:19;99906.69;;;9.06;91.63
21520;BME280;10921;53.614;9.882;2023-12-29T05:09:45;99924.47;;;9.06;91.86
21520;BME280;10921;53.614;9.882;2023-12-29T05:12:12;99947.28;;;9.08;91.83
21520;BME280;10921;53.614;9.882;2023-12-29T05:14:39;99932.44;;;9.06;92.47
21520;BME280;10921;53.614;9.882;2023-12-29T05:17:05;99932.44;;;9.06;92.81
21520;BME280;10921;53.614;9.882;2023-12-29T05:19:32;99922.66;;;9.06;92.68
21520;BME280;10921;53.614;9.882;2023-12-29T05:21:58;99921.28;;;9.02;93.00
21520;BME280;10921;53.614;9.882;2023-12-29T05:24:25;99922.09;;;9.03;93.12
21520;BME280;10921;53.614;9.882;2023-12-29T05:26:54;99931.06;;;9.02;94.21
21520;BME280;10921;53.614;9.882;2023-12-29T05:29:21;99906.09;;;8.95;94.75
21520;BME280;10921;53.614;9.882;2023-12-29T05:31:47;99931.72;;;8.96;95.57
21520;BME280;10921;53.614;9.882;2023-12-29T05:34:14;99928.38;;;8.94;96.00
21520;BME280;10921;53.614;9.882;2023-12-29T05:36:41;99943.34;;;8.95;96.07
21520;BME280;10921;53.614;9.882;2023-12-29T05:39:08;99936.66;;;8.91;96.96
21520;BME280;10921;53.614;9.882;2023-12-29T05:41:35;99934.38;;;8.96;97.04
21520;BME280;10921;53.614;9.882;2023-12-29T05:44:01;99943.94;;;9.06;97.16
21520;BME280;10921;53.614;9.882;2023-12-29T05:46:29;99942.66;;;9.10;96.89
21520;BME280;10921;53.614;9.882;2023-12-29T05:48:55;99936.34;;;9.11;97.22
21520;BME280;10921;53.614;9.882;2023-12-29T05:51:22;99942.19;;;9.15;97.29
21520;BME280;10921;53.614;9.882;2023-12-29T05:53:49;99947.38;;;9.16;97.20
21520;BME280;10921;53.614;9.882;2023-12-29T05:56:15;99947.19;;;9.18;97.16
21520;BME280;10921;53.614;9.882;2023-12-29T05:58:43;99932.19;;;9.17;96.93
21520;BME280;10921;53.614;9.882;2023-12-29T06:01:10;99947.03;;;9.20;96.96
21520;BME280;10921;53.614;9.882;2023-12-29T06:03:37;99932.06;;;9.18;97.23
21520;BME280;10921;53.614;9.882;2023-12-29T06:06:04;99926.88;;;9.17;97.42
21520;BME280;10921;53.614;9.882;2023-12-29T06:08:30;99943.22;;;9.22;97.11
21520;BME280;10921;53.614;9.882;2023-12-29T06:10:57;99947.56;;;9.23;97.33
21520;BME280;10921;53.614;9.882;2023-12-29T06:13:24;99962.41;;;9.26;96.80
21520;BME280;10921;53.614;9.882;2023-12-29T06:15:50;99948.97;;;9.35;97.13
21520;BME280;10921;53.614;9.882;2023-12-29T06:18:17;99945.81;;;9.32;97.68
21520;BME280;10921;53.614;9.882;2023-12-29T06:20:44;99952.78;;;9.33;98.24
21520;BME280;10921;53.614;9.882;2023-12-29T06:23:10;99946.00;;;9.38;98.34
21520;BME280;10921;53.614;9.882;2023-12-29T06:25:37;99950.03;;;9.42;98.23
21520;BME280;10921;53.614;9.882;2023-12-29T06:28:06;99965.38;;;9.48;97.74
21520;BME280;10921;53.614;9.882;2023-12-29T06:30:33;99951.03;;;9.41;98.38
21520;BME280;10921;53.614;9.882;2023-12-29T06:33:00;99964.38;;;9.49;98.52
21520;BME280;10921;53.614;9.882;2023-12-29T06:35:27;99951.75;;;9.51;97.85
21520;BME280;10921;53.614;9.882;2023-12-29T06:37:53;99959.13;;;9.58;98.31
21520;BME280;10921;53.614;9.882;2023-12-29T06:40:20;99973.97;;;9.60;98.23
21520;BME280;10921;53.614;9.882;2023-12-29T06:42:49;99972.06;;;9.52;98.88
21520;BME280;10921;53.614;9.882;2023-12-29T06:45:16;99976.16;;;9.65;98.27
21520;BME280;10921;53.614;9.882;2023-12-29T06:47:42;99969.00;;;9.65;97.81
21520;BME280;10921;53.614;9.882;2023-12-29T06:50:09;99975.69;;;9.69;97.55
21520;BME280;10921;53.614;9.882;2023-12-29T06:52:39;99983.38;;;9.72;97.74
21520;BME280;10921;53.614;9.882;2023-12-29T06:55:06;99980.56;;;9.74;97.34
21520;BME280;10921;53.614;9.882;2023-12-29T06:57:34;99981.09;;;9.77;97.06
21520;BME280;10921;53.614;9.882;2023-12-29T07:00:00;99975.25;;;9.82;96.27
21520;BME280;10921;53.614;9.882;2023-12-29T07:02:27;99985.97;;;9.90;96.21
21520;BME280;10921;53.614;9.882;2023-12-29T07:04:54;99957.44;;;9.82;96.03
21520;BME280;10921;53.614;9.882;2023-12-29T07:07:20;99961.66;;;9.93;95.73
21520;BME280;10921;53.614;9.882;2023-12-29T07:09:47;99971.84;;;9.98;95.34
21520;BME280;10921;53.614;9.882;2023-12-29T07:12:14;99966.56;;;10.06;94.87
21520;BME280;10921;53.614;9.882;2023-12-29T07:14:41;99966.41;;;10.07;94.57
21520;BME280;10921;53.614;9.882;2023-12-29T07:17:08;99972.09;;;10.12;94.05
21520;BME280;10921;53.614;9.882;2023-12-29T07:19:35;99963.50;;;10.18;93.87
21520;BME280;10921;53.614;9.882;2023-12-29T07:22:04;99940.63;;;10.16;93.37
21520;BME280;10921;53.614;9.882;2023-12-29T07:24:32;99949.00;;;10.21;92.88
21520;BME280;10921;53.614;9.882;2023-12-29T07:26:59;99971.03;;;10.31;92.37
21520;BME280;10921;53.614;9.882;2023-12-29T07:29:26;99979.41;;;10.36;92.05
21520;BME280;10921;53.614;9.882;2023-12-29T07:31:53;99971.88;;;10.40;91.40
21520;BME280;10921;53.614;9.882;2023-12-29T07:34:20;99964.94;;;10.47;91.34
21520;BME280;10921;53.614;9.882;2023-12-29T07:36:47;99950.59;;;10.48;90.76
21520;BME280;10921;53.614;9.882;2023-12-29T07:39:14;99934.44;;;10.49;90.13
21520;BME280;10921;53.614;9.882;2023-12-29T07:41:41;99932.44;;;10.60;89.80
21520;BME280;10921;53.614;9.882;2023-12-29T07:44:11;99959.47;;;10.65;89.13
21520;BME280;10921;53.614;9.882;2023-12-29T07:46:39;99966.81;;;10.71;88.44
21520;BME280;10921;53.614;9.882;2023-12-29T07:49:06;99961.50;;;10.79;87.94
21520;BME280;10921;53.614;9.882;2023-12-29T07:51:33;99959.50;;;10.89;87.48
21520;BME280;10921;53.614;9.882;2023-12-29T07:54:00;99959.03;;;10.93;87.21
21520;BME280;10921;53.614;9.882;2023-12-29T07:56:27;99962.69;;;11.01;86.61
21520;BME280;10921;53.614;9.882;2023-12-29T07:58:53;99963.53;;;11.01;86.01
21520;BME280;10921;53.614;9.882;2023-12-29T08:01:20;99956.84;;;11.05;85.58
21520;BME280;10921;53.614;9.882;2023-12-29T08:03:46;99969.41;;;11.13;84.66
21520;BME280;10921;53.614;9.882;2023-12-29T08:06:13;99959.19;;;11.16;84.15
21520;BME280;10921;53.614;9.882;2023-12-29T08:08:41;99957.69;;;11.22;83.64
21520;BME280;10921;53.614;9.882;2023-12-29T08:11:16;99956.69;;;11.23;83.25
21520;BME280;10921;53.614;9.882;2023-12-29T08:13:44;99967.06;;;11.26;82.22
21520;BME280;10921;53.614;9.882;2023-12-29T08:16:11;99961.84;;;11.33;81.79
21520;BME280;10921;53.614;9.882;2023-12-29T08:18:38;99974.88;;;11.36;81.39
21520;BME280;10921;53.614;9.882;2023-12-29T08:21:05;99953.69;;;11.34;81.19
21520;BME280;10921;53.614;9.882;2023-12-29T08:23:31;99971.56;;;11.42;80.77
21520;BME280;10921;53.614;9.882;2023-12-29T08:25:58;99969.03;;;11.48;80.68
21520;BME280;10921;53.614;9.882;2023-12-29T08:28:24;99973.69;;;11.46;80.33
21520;BME280;10921;53.614;9.882;2023-12-29T08:30:51;99973.38;;;11.49;80.44
21520;BME280;10921;53.614;9.882;2023-12-29T08:33:19;99962.53;;;11.51;80.55
21520;BME280;10921;53.614;9.882;2023-12-29T08:35:45;99966.03;;;11.51;80.25
21520;BME280;10921;53.614;9.882;2023-12-29T08:38:12;99962.34;;;11.52;79.93
21520;BME280;10921;53.614;9.882;2023-12-29T08:40:40;99962.00;;;11.47;79.60
21520;BME280;10921;53.614;9.882;2023-12-29T08:43:07;99962.19;;;11.46;79.08
21520;BME280;10921;53.614;9.882;2023-12-29T08:45:34;99925.47;;;11.56;78.90
21520;BME280;10921;53.614;9.882;2023-12-29T08:48:02;99971.03;;;11.54;78.23
21520;BME280;10921;53.614;9.882;2023-12-29T08:50:30;99985.38;;;11.70;78.01
21520;BME280;10921;53.614;9.882;2023-12-29T08:52:56;99961.66;;;11.67;77.70
21520;BME280;10921;53.614;9.882;2023-12-29T08:55:23;99995.91;;;11.71;76.98
21520;BME280;10921;53.614;9.882;2023-12-29T08:57:49;99993.25;;;11.79;77.58
21520;BME280;10921;53.614;9.882;2023-12-29T09:00:16;100000.91;;;11.82;76.50
21520;BME280;10921;53.614;9.882;2023-12-29T09:02:43;99955.31;;;11.84;75.78
21520;BME280;10921;53.614;9.882;2023-12-29T09:05:11;100002.44;;;11.85;76.12
21520;BME280;10921;53.614;9.882;2023-12-29T09:07:37;99990.22;;;11.82;76.04
21520;BME280;10921;53.614;9.882;2023-12-29T09:10:05;99997.56;;;11.80;76.29
21520;BME280;10921;53.614;9.882;2023-12-29T09:12:34;100012.41;;;11.99;76.65
21520;BME280;10921;53.614;9.882;2023-12-29T09:15:01;100038.50;;;11.89;76.58
21520;BME280;10921;53.614;9.882;2023-12-29T09:17:29;100019.31;;;11.85;76.92
21520;BME280;10921;53.614;9.882;2023-12-29T09:19:56;100032.16;;;11.82;75.88
21520;BME280;10921;53.614;9.882;2023-12-29T09:22:35;100023.13;;;11.75;75.24
21520;BME280;10921;53.614;9.882;2023-12-29T09:25:02;100009.09;;;11.64;75.30
21520;BME280;10921;53.614;9.882;2023-12-29T09:27:29;100004.75;;;11.63;75.34
21520;BME280;10921;53.614;9.882;2023-12-29T09:29:55;100007.09;;;11.50;76.05
21520;BME280;10921;53.614;9.882;2023-12-29T09:32:22;100026.50;;;11.44;76.97
21520;BME280;10921;53.614;9.882;2023-12-29T09:34:48;100012.78;;;11.31;78.36
21520;BME280;10921;53.614;9.882;2023-12-29T09:37:15;100029.16;;;11.28;79.01
21520;BME280;10921;53.614;9.882;2023-12-29T09:39:42;100019.44;;;11.19;79.90
21520;BME280;10921;53.614;9.882;2023-12-29T09:42:13;100030.28;;;11.17;80.84
21520;BME280;10921;53.614;9.882;2023-12-29T09:45:00;100031.28;;;11.16;81.68
21520;BME280;10921;53.614;9.882;2023-12-29T09:47:31;100028.97;;;11.13;81.63
21520;BME280;10921;53.614;9.882;2023-12-29T09:50:00;100031.97;;;11.18;81.79
21520;BME280;10921;53.614;9.882;2023-12-29T09:52:35;100023.78;;;11.20;82.12
21520;BME280;10921;53.614;9.882;2023-12-29T09:55:03;100015.78;;;11.20;82.59
21520;BME280;10921;53.614;9.882;2023-12-29T09:57:30;100006.59;;;11.22;83.21
21520;BME280;10921;53.614;9.882;2023-12-29T09:59:57;100007.28;;;11.24;83.40
21520;BME280;10921;53.614;9.882;2023-12-29T10:02:24;100006.94;;;11.27;83.76
21520;BME280;10921;53.614;9.882;2023-12-29T10:04:51;99995.91;;;11.22;83.68
21520;BME280;10921;53.614;9.882;2023-12-29T10:07:24;99995.75;;;11.32;83.98
21520;BME280;10921;53.614;9.882;2023-12-29T10:09:56;99998.75;;;11.37;83.62
21520;BME280;10921;53.614;9.882;2023-12-29T10:12:25;99997.75;;;11.38;83.20
21520;BME280;10921;53.614;9.882;2023-12-29T10:15:05;99987.75;;;11.40;83.64
21520;BME280;10921;53.614;9.882;2023-12-29T10:20:45;99986.75;;;11.41;81.85
21520;BME280;10921;53.614;9.882;2023-12-29T10:23:37;99995.75;;;11.48;81.77
21520;BME280;10921;53.614;9.882;2023-12-29T10:26:05;99991.09;;;11.42;80.83
21520;BME280;10921;53.614;9.882;2023-12-29T10:28:33;99998.56;;;11.47;80.80
21520;BME280;10921;53.614;9.882;2023-12-29T10:31:00;99994.41;;;11.52;80.23
21520;BME280;10921;53.614;9.882;2023-12-29T10:33:26;100007.94;;;11.59;79.80
21520;BME280;10921;53.614;9.882;2023-12-29T10:36:00;100005.59;;;11.64;79.86
21520;BME280;10921;53.614;9.882;2023-12-29T10:38:40;99999.75;;;11.69;78.59
21520;BME280;10921;53.614;9.882;2023-12-29T10:41:11;100003.91;;;11.71;78.29
21520;BME280;10921;53.614;9.882;2023-12-29T10:43:40;100008.81;;;11.76;78.20
21520;BME280;10921;53.614;9.882;2023-12-29T10:46:11;100007.25;;;11.73;78.53
21520;BME280;10921;53.614;9.882;2023-12-29T10:48:38;99986.53;;;11.67;77.80
21520;BME280;10921;53.614;9.882;2023-12-29T10:51:06;100003.75;;;11.73;78.07
21520;BME280;10921;53.614;9.882;2023-12-29T10:53:34;100003.09;;;11.79;78.40
21520;BME280;10921;53.614;9.882;2023-12-29T10:56:16;99967.19;;;11.57;78.56
21520;BME280;10921;53.614;9.882;2023-12-29T10:58:56;99996.56;;;11.81;78.79
21520;BME280;10921;53.614;9.882;2023-12-29T11:01:23;100003.25;;;11.77;78.51
21520;BME280;10921;53.614;9.882;2023-12-29T11:04:04;99989.72;;;11.71;79.00
21520;BME280;10921;53.614;9.882;2023-12-29T11:06:41;99985.88;;;11.65;78.83
21520;BME280;10921;53.614;9.882;2023-12-29T11:09:11;99991.06;;;11.67;78.86
21520;BME280;10921;53.614;9.882;2023-12-29T11:11:38;99988.03;;;11.61;79.08
21520;BME280;10921;53.614;9.882;2023-12-29T11:14:05;99972.03;;;11.53;79.36
21520;BME280;10921;53.614;9.882;2023-12-29T11:16:32;99984.75;;;11.59;79.45
21520;BME280;10921;53.614;9.882;2023-12-29T11:18:58;99980.88;;;11.62;79.72
21520;BME280;10921;53.614;9.882;2023-12-29T11:21:27;99981.06;;;11.60;80.18
21520;BME280;10921;53.614;9.882;2023-12-29T11:23:56;99962.19;;;11.46;80.58
21520;BME280;10921;53.614;9.882;2023-12-29T11:26:23;99990.75;;;11.53;81.05
21520;BME280;10921;53.614;9.882;2023-12-29T11:28:53;99995.41;;;11.51;81.21
21520;BME280;10921;53.614;9.882;2023-12-29T11:31:21;99978.22;;;11.54;81.25
21520;BME280;10921;53.614;9.882;2023-12-29T11:33:53;99982.56;;;11.55;82.04
21520;BME280;10921;53.614;9.882;2023-12-29T11:36:28;99982.38;;;11.48;82.07
21520;BME280;10921;53.614;9.882;2023-12-29T11:41:46;99985.75;;;11.58;82.36
21520;BME280;10921;53.614;9.882;2023-12-29T11:44:24;99982.22;;;11.66;82.46
21520;BME280;10921;53.614;9.882;2023-12-29T11:46:52;99974.84;;;11.68;81.48
21520;BME280;10921;53.614;9.882;2023-12-29T11:49:18;99960.00;;;11.82;81.19
21520;BME280;10921;53.614;9.882;2023-12-29T11:51:49;99952.16;;;11.80;80.38
21520;BME280;10921;53.614;9.882;2023-12-29T11:54:26;99958.31;;;11.89;80.06
21520;BME280;10921;53.614;9.882;2023-12-29T11:56:54;99964.00;;;11.86;79.79
21520;BME280;10921;53.614;9.882;2023-12-29T11:59:22;99945.63;;;11.83;79.81
21520;BME280;10921;53.614;9.882;2023-12-29T12:01:54;99957.78;;;11.93;80.33
21520;BME280;10921;53.614;9.882;2023-12-29T12:07:03;99968.19;;;11.88;79.88
21520;BME280;10921;53.614;9.882;2023-12-29T12:09:29;99953.81;;;11.89;79.69
21520;BME280;10921;53.614;9.882;2023-12-29T12:11:56;99958.16;;;11.90;79.38
21520;BME280;10921;53.614;9.882;2023-12-29T12:17:35;99945.91;;;12.04;79.25
21520;BME280;10921;53.614;9.882;2023-12-29T12:20:06;99943.56;;;12.01;78.38
21520;BME280;10921;53.614;9.882;2023-12-29T12:22:34;99927.84;;;12.06;78.18
21520;BME280;10921;53.614;9.882;2023-12-29T12:25:05;99933.66;;;12.18;77.62
21520;BME280;10921;53.614;9.882;2023-12-29T12:27:32;99940.66;;;12.19;77.39
21520;BME280;10921;53.614;9.882;2023-12-29T12:29:59;99941.09;;;12.30;77.46
21520;BME280;10921;53.614;9.882;2023-12-29T12:32:27;99934.41;;;12.35;76.98
21520;BME280;10921;53.614;9.882;2023-12-29T12:34:54;99930.34;;;12.39;76.87
21520;BME280;10921;53.614;9.882;2023-12-29T12:37:23;99943.69;;;12.47;76.83
21520;BME280;10921;53.614;9.882;2023-12-29T12:39:50;99928.97;;;12.51;75.96
21520;BME280;10921;53.614;9.882;2023-12-29T12:42:22;99931.72;;;12.65;76.03
21520;BME280;10921;53.614;9.882;2023-12-29T12:44:55;99941.19;;;12.76;75.47
21520;BME280;10921;53.614;9.882;2023-12-29T12:47:32;99916.25;;;12.76;75.47
21520;BME280;10921;53.614;9.882;2023-12-29T12:50:00;99945.69;;;12.76;74.93
21520;BME280;10921;53.614;9.882;2023-12-29T12:52:35;99934.84;;;12.69;75.34
21520;BME280;10921;53.614;9.882;2023-12-29T12:55:03;99943.78;;;12.61;75.36
21520;BME280;10921;53.614;9.882;2023-12-29T12:57:30;99946.94;;;12.65;75.68
21520;BME280;10921;53.614;9.882;2023-12-29T12:59:59;99941.09;;;12.61;75.62
21520;BME280;10921;53.614;9.882;2023-12-29T13:02:28;99925.41;;;12.58;75.72
21520;BME280;10921;53.614;9.882;2023-12-29T13:04:55;99919.56;;;12.55;75.98
21520;BME280;10921;53.614;9.882;2023-12-29T13:07:21;99932.41;;;12.59;76.05
21520;BME280;10921;53.614;9.882;2023-12-29T13:09:49;99932.66;;;12.50;76.17
21520;BME280;10921;53.614;9.882;2023-12-29T13:12:17;99948.56;;;12.43;76.30
21520;BME280;10921;53.614;9.882;2023-12-29T13:14:44;99957.09;;;12.47;76.20
21520;BME280;10921;53.614;9.882;2023-12-29T13:17:15;99940.72;;;12.42;76.32
21520;BME280;10921;53.614;9.882;2023-12-29T13:19:43;99940.88;;;12.40;76.56
21520;BME280;10921;53.614;9.882;2023-12-29T13:22:11;99935.25;;;12.35;76.08
21520;BME280;10921;53.614;9.882;2023-12-29T13:24:45;99931.09;;;12.24;76.97